createdAt,value
2023-01-25T05:42:38.603Z,17.40
2023-01-25T05:45:09.697Z,16.20
2023-01-25T05:47:37.283Z,14.60
2023-01-25T05:50:04.586Z,15.60
2023-01-25T05:52:49.274Z,18.00
2023-01-25T05:55:16.289Z,15.10
2023-01-25T05:57:44.077Z,15.90
2023-01-25T06:00:11.250Z,16.80
2023-01-25T06:02:42.721Z,16.20
2023-01-25T06:05:15.281Z,16.70
2023-01-25T06:07:42.092Z,19.70
2023-01-25T06:10:09.578Z,21.20
2023-01-25T06:12:39.951Z,15.20
2023-01-25T06:15:08.454Z,23.20
2023-01-25T06:17:35.753Z,18.80
2023-01-25T06:20:15.474Z,16.00
2023-01-25T06:22:58.301Z,19.00
2023-01-25T06:25:27.276Z,15.40
2023-01-25T06:27:54.751Z,18.10
2023-01-25T06:30:21.691Z,15.50
2023-01-25T06:32:49.869Z,15.30
2023-01-25T06:35:16.513Z,17.50
2023-01-25T06:37:43.523Z,17.90
2023-01-25T06:40:10.961Z,17.90
2023-01-25T06:42:37.932Z,18.70
2023-01-25T06:45:05.861Z,14.00
2023-01-25T06:47:32.521Z,16.90
2023-01-25T06:49:59.937Z,15.60
2023-01-25T06:52:26.779Z,14.70
2023-01-25T06:54:53.531Z,13.70
2023-01-25T06:57:20.377Z,16.70
2023-01-25T06:59:47.218Z,17.70
2023-01-25T07:02:15.345Z,14.40
2023-01-25T07:04:45.296Z,18.90
2023-01-25T07:07:12.137Z,16.50
2023-01-25T07:09:38.840Z,15.80
2023-01-25T07:12:06.126Z,17.90
2023-01-25T07:14:33.302Z,15.90
2023-01-25T07:17:02.965Z,18.40
2023-01-25T07:19:30.730Z,25.30
2023-01-25T07:21:57.544Z,18.40
2023-01-25T07:24:26.482Z,15.90
2023-01-25T07:26:53.338Z,15.80
2023-01-25T07:29:21.211Z,15.10
2023-01-25T07:31:48.439Z,18.90
2023-01-25T07:34:16.484Z,16.80
2023-01-25T07:36:44.362Z,17.60
2023-01-25T07:39:11.406Z,16.50
2023-01-25T07:41:39.315Z,18.30
2023-01-25T07:44:11.315Z,23.00
2023-01-25T07:46:44.846Z,19.20
2023-01-25T07:49:11.700Z,16.30
2023-01-25T07:51:42.453Z,19.30
2023-01-25T07:54:10.026Z,16.70
2023-01-25T07:56:37.820Z,20.10
2023-01-25T07:59:09.373Z,32.00
2023-01-25T08:04:09.122Z,18.40
2023-01-25T08:06:38.690Z,17.70
2023-01-25T08:09:13.839Z,18.10
2023-01-25T08:11:41.901Z,18.50
2023-01-25T08:14:09.017Z,19.40
2023-01-25T08:16:36.617Z,18.70
2023-01-25T08:19:03.603Z,19.70
2023-01-25T08:21:35.221Z,22.90
2023-01-25T08:24:04.695Z,22.30
2023-01-25T08:26:33.605Z,25.00
2023-01-25T08:29:01.106Z,19.90
2023-01-25T08:31:30.676Z,26.50
2023-01-25T08:33:59.157Z,26.80
2023-01-25T08:36:27.447Z,21.40
2023-01-25T08:39:00.355Z,25.50
2023-01-25T08:41:28.724Z,26.60
2023-01-25T08:43:56.184Z,30.20
2023-01-25T08:46:24.550Z,27.10
2023-01-25T08:48:57.788Z,29.40
2023-01-25T08:51:27.642Z,33.60
2023-01-25T08:53:58.085Z,27.90
2023-01-25T08:56:24.853Z,33.40
2023-01-25T08:58:58.407Z,34.80
2023-01-25T09:01:25.231Z,35.30
2023-01-25T09:03:54.252Z,29.40
2023-01-25T09:06:23.165Z,24.90
2023-01-25T09:08:50.380Z,32.20
2023-01-25T09:11:20.222Z,30.80
2023-01-25T09:13:59.697Z,30.10
2023-01-25T09:16:31.305Z,29.20
2023-01-25T09:19:00.163Z,24.00
2023-01-25T09:21:27.455Z,21.90
2023-01-25T09:24:06.052Z,24.90
2023-01-25T09:26:36.979Z,24.20
2023-01-25T09:29:05.377Z,30.80
2023-01-25T09:31:37.799Z,28.10
2023-01-25T09:34:24.424Z,33.70
2023-01-25T09:36:52.319Z,31.80
2023-01-25T09:39:20.580Z,26.10
2023-01-25T09:42:13.975Z,25.50
2023-01-25T09:44:56.449Z,29.40
2023-01-25T09:47:29.210Z,31.90
2023-01-25T09:50:19.249Z,27.20
2023-01-25T09:52:50.605Z,29.00
2023-01-25T09:55:18.054Z,30.20
2023-01-25T09:57:45.843Z,30.00
2023-01-25T10:00:20.012Z,29.60
2023-01-25T10:03:01.418Z,32.10
2023-01-25T10:05:37.811Z,30.20
2023-01-25T10:08:34.087Z,35.80
2023-01-25T10:11:26.664Z,37.80
2023-01-25T10:13:56.307Z,34.40
2023-01-25T10:16:46.913Z,32.60
2023-01-25T10:19:33.578Z,36.90
2023-01-25T10:22:05.372Z,33.30
2023-01-25T10:25:01.491Z,32.90
2023-01-25T10:27:44.172Z,33.30
2023-01-25T10:30:38.933Z,28.20
2023-01-25T10:33:18.710Z,30.90
2023-01-25T10:35:48.337Z,33.70
2023-01-25T10:39:37.733Z,31.00
2023-01-25T10:42:11.337Z,29.50
2023-01-25T10:44:42.208Z,32.60
2023-01-25T10:47:12.802Z,40.70
2023-01-25T10:49:49.717Z,30.60
2023-01-25T10:52:28.388Z,36.30
2023-01-25T10:55:19.534Z,35.10
2023-01-25T10:58:05.954Z,31.50
2023-01-25T11:00:47.899Z,31.10
2023-01-25T11:03:42.953Z,32.30
2023-01-25T11:06:10.776Z,30.70
2023-01-25T11:12:21.950Z,29.20
2023-01-25T11:15:26.056Z,33.00
2023-01-25T11:18:06.483Z,31.80
2023-01-25T11:20:38.148Z,35.90
2023-01-25T11:23:26.643Z,29.50
2023-01-25T11:25:56.862Z,26.00
2023-01-25T11:28:24.187Z,31.90
2023-01-25T11:30:51.987Z,25.90
2023-01-25T11:33:20.195Z,26.30
2023-01-25T11:36:03.259Z,26.00
2023-01-25T11:38:57.740Z,25.50
2023-01-25T11:41:42.973Z,32.10
2023-01-25T11:44:26.394Z,26.90
2023-01-25T11:46:59.244Z,33.40
2023-01-25T11:49:39.248Z,36.30
2023-01-25T11:52:30.536Z,30.90
2023-01-25T11:55:06.804Z,26.80
2023-01-25T11:58:23.159Z,35.70
2023-01-25T12:01:24.297Z,26.00
2023-01-25T12:04:41.429Z,26.70
2023-01-25T12:07:24.528Z,31.70
2023-01-25T12:10:14.170Z,24.60
2023-01-25T12:12:55.913Z,23.70
2023-01-25T12:16:00.585Z,23.50
2023-01-25T12:18:49.766Z,27.70
2023-01-25T12:22:01.776Z,23.20
2023-01-25T12:24:54.637Z,28.50
2023-01-25T12:27:55.685Z,26.90
2023-01-25T12:31:02.596Z,24.10
2023-01-25T12:33:49.692Z,28.70
2023-01-25T12:36:21.655Z,26.00
2023-01-25T12:39:10.443Z,27.20
2023-01-25T12:41:45.243Z,25.40
2023-01-25T12:44:18.574Z,23.90
2023-01-25T12:46:51.936Z,28.50
2023-01-25T12:49:44.303Z,24.20
2023-01-25T12:52:34.177Z,27.30
2023-01-25T12:55:04.469Z,29.10
2023-01-25T12:57:43.015Z,22.00
2023-01-25T13:00:48.898Z,31.50
2023-01-25T13:03:25.000Z,41.50
2023-01-25T13:06:25.477Z,28.60
2023-01-25T13:09:31.634Z,28.60
2023-01-25T13:12:00.719Z,30.90
2023-01-25T13:14:30.353Z,26.60
2023-01-25T13:17:22.339Z,24.30
2023-01-25T13:19:52.922Z,29.80
2023-01-25T13:22:48.083Z,22.90
2023-01-25T13:25:16.524Z,29.80
2023-01-25T13:27:44.491Z,27.80
2023-01-25T13:30:33.606Z,33.90
2023-01-25T13:33:02.997Z,28.20
2023-01-25T13:35:38.521Z,25.20
2023-01-25T13:38:21.795Z,27.60
2023-01-25T13:41:10.689Z,31.80
2023-01-25T13:43:39.779Z,30.70
2023-01-25T13:46:09.432Z,25.70
2023-01-25T13:48:38.205Z,39.50
2023-01-25T13:51:08.906Z,35.80
2023-01-25T13:53:39.416Z,29.70
2023-01-25T13:56:24.431Z,31.60
2023-01-25T13:58:53.946Z,29.70
2023-01-25T14:01:23.146Z,36.40
2023-01-25T14:03:58.987Z,31.60
2023-01-25T14:06:39.621Z,33.60
2023-01-25T14:09:20.516Z,33.20
2023-01-25T14:11:55.155Z,32.10
2023-01-25T14:14:33.069Z,31.80
2023-01-25T14:17:16.618Z,31.30
2023-01-25T14:19:45.343Z,38.20
2023-01-25T14:22:24.414Z,29.50
2023-01-25T14:25:13.490Z,37.00
2023-01-25T14:28:00.570Z,30.00
2023-01-25T14:30:31.637Z,27.10
2023-01-25T14:35:54.633Z,30.60
2023-01-25T14:38:44.459Z,30.60
2023-01-25T14:41:33.592Z,35.80
2023-01-25T14:44:21.600Z,37.80
2023-01-25T14:47:31.685Z,36.40
2023-01-25T14:50:48.035Z,34.50
2023-01-25T14:53:22.328Z,34.50
2023-01-25T14:55:52.307Z,41.20
2023-01-25T14:58:25.704Z,37.60
2023-01-25T15:01:02.575Z,35.50
2023-01-25T15:03:35.420Z,29.10
2023-01-25T15:06:06.570Z,32.80
2023-01-25T15:08:38.345Z,37.70
2023-01-25T15:11:59.740Z,39.20
2023-01-25T15:14:31.604Z,30.50
2023-01-25T15:17:01.845Z,39.70
2023-01-25T15:19:34.360Z,34.00
2023-01-25T15:22:08.637Z,35.00
2023-01-25T15:24:42.353Z,36.40
2023-01-25T15:27:18.348Z,37.30
2023-01-25T15:29:50.566Z,32.60
2023-01-25T15:32:22.372Z,33.90
2023-01-25T15:34:53.691Z,44.10
2023-01-25T15:37:23.797Z,35.50
2023-01-25T15:45:49.278Z,38.30
2023-01-25T15:48:45.271Z,34.50
2023-01-25T15:51:14.220Z,33.20
2023-01-25T15:53:42.244Z,39.70
2023-01-25T15:56:15.281Z,32.30
2023-01-25T15:58:45.918Z,38.60
2023-01-25T16:01:13.992Z,34.10
2023-01-25T16:03:42.515Z,38.50
2023-01-25T16:06:21.171Z,41.50
2023-01-25T16:08:49.330Z,32.90
2023-01-25T16:11:18.187Z,36.50
2023-01-25T16:13:46.253Z,35.50
2023-01-25T16:16:19.890Z,38.10
2023-01-25T16:18:48.087Z,39.00
2023-01-25T16:21:16.392Z,37.80
2023-01-25T16:23:44.908Z,33.00
2023-01-25T16:26:21.298Z,41.90
2023-01-25T16:28:50.327Z,36.90
2023-01-25T16:31:31.225Z,43.50
2023-01-25T16:34:01.239Z,36.40
2023-01-25T16:36:34.473Z,30.00
2023-01-25T16:39:08.645Z,32.00
2023-01-25T16:41:37.162Z,40.60
2023-01-25T16:44:05.160Z,42.00
2023-01-25T16:46:34.085Z,33.60
2023-01-25T16:49:05.085Z,36.80
2023-01-25T16:51:33.305Z,39.10
2023-01-25T16:54:01.394Z,38.50
2023-01-25T16:56:32.186Z,38.70
2023-01-25T16:59:02.317Z,40.00
2023-01-25T17:12:00.482Z,35.00
2023-01-25T17:14:28.686Z,38.90
2023-01-25T17:27:17.328Z,29.70
2023-01-25T17:29:46.094Z,29.20
2023-01-25T17:32:14.089Z,32.10
2023-01-25T17:34:42.832Z,31.50
2023-01-25T17:37:10.797Z,34.90
